Time;durP1;ratioP1;P1;durP2;ratioP2;P2;SDS_P1;SDS_P2;PMS_P1;PMS_P2;Temp;Humidity;BMP_temperature;BMP_pressure;BME280_temperature;BME280_humidity;BME280_pressure;Samples;Min_cycle;Max_cycle;Signal;HPM_P1;HPM_P2
2022/03/20 00:01:49;;;;;;;32.90;13.30;;;;;;;;;;4827764;29;20034;-95
2022/03/20 00:06:41;;;;;;;30.17;12.93;;;;;;;;;;4881276;23;20527;-86
2022/03/20 00:09:13;;;;;;;35.70;14.43;;;;;;;;;;4815482;29;20065;-85
2022/03/20 00:11:39;;;;;;;32.60;13.25;;;;;;;;;;4813667;29;20030;-86
2022/03/20 00:17:00;;;;;;;28.13;11.60;;;;;;;;;;4863296;23;20142;-85
2022/03/20 00:22:07;;;;;;;26.90;11.82;;;;;;;;;;4858651;23;20049;-93
2022/03/20 00:27:25;;;;;;;34.00;13.52;;;;;;;;;;5016785;23;20077;-93
2022/03/20 00:32:27;;;;;;;25.98;11.65;;;;;;;;;;4983566;23;20589;-86
2022/03/20 00:37:48;;;;;;;29.42;12.38;;;;;;;;;;4857878;23;20412;-87
2022/03/20 00:40:20;;;;;;;32.17;12.27;;;;;;;;;;4844586;24;20535;-95
2022/03/20 00:42:55;;;;;;;32.70;12.60;;;;;;;;;;4827816;29;20101;-93
2022/03/20 00:45:21;;;;;;;36.17;12.32;;;;;;;;;;4831013;29;20117;-85
2022/03/20 00:48:10;;;;;;;29.45;11.98;;;;;;;;;;4826863;29;20026;-93
2022/03/20 00:53:50;;;;;;;24.85;10.70;;;;;;;;;;4843274;29;20090;-92
2022/03/20 00:56:27;;;;;;;25.17;10.80;;;;;;;;;;4832010;24;20058;-92
2022/03/20 00:58:54;;;;;;;27.60;12.05;;;;;;;;;;4812041;29;20059;-86
2022/03/20 01:01:29;;;;;;;26.13;11.50;;;;;;;;;;4828014;29;20365;-92
2022/03/20 01:03:58;;;;;;;22.35;10.90;;;;;;;;;;4812564;29;20118;-92
2022/03/20 01:06:24;;;;;;;27.00;11.75;;;;;;;;;;4831689;24;20069;-86
2022/03/20 01:08:52;;;;;;;28.88;11.82;;;;;;;;;;4825898;29;20027;-85
2022/03/20 01:11:28;;;;;;;32.95;12.13;;;;;;;;;;4914564;23;20068;-95
2022/03/20 01:14:08;;;;;;;29.42;11.75;;;;;;;;;;4831854;29;20045;-95
2022/03/20 01:16:34;;;;;;;30.55;11.68;;;;;;;;;;4830897;29;20101;-85
2022/03/20 01:21:54;;;;;;;34.22;13.38;;;;;;;;;;4873084;23;20046;-86
2022/03/20 01:26:46;;;;;;;52.25;18.77;;;;;;;;;;4858115;23;20054;-93
2022/03/20 01:29:21;;;;;;;47.85;18.13;;;;;;;;;;4830058;29;20038;-93
2022/03/20 01:31:56;;;;;;;43.00;15.63;;;;;;;;;;4829177;29;20041;-88
2022/03/20 01:37:05;;;;;;;35.30;14.70;;;;;;;;;;4845492;29;20069;-95
2022/03/20 01:39:32;;;;;;;36.30;14.30;;;;;;;;;;4863596;23;20038;-90
2022/03/20 01:41:58;;;;;;;34.47;14.02;;;;;;;;;;4828318;29;20098;-89
2022/03/20 01:44:40;;;;;;;31.08;12.35;;;;;;;;;;4846083;29;20484;-88
2022/03/20 01:47:38;;;;;;;;;;;;;;;;;;;;;
2022/03/20 01:50:28;;;;;;;31.55;10.75;;;;;;;;;;4859817;23;20054;-93
2022/03/20 01:53:04;;;;;;;24.98;10.27;;;;;;;;;;4812146;29;20481;-92
2022/03/20 01:55:40;;;;;;;23.48;10.27;;;;;;;;;;4811326;29;20052;-94
2022/03/20 01:58:09;;;;;;;22.88;10.23;;;;;;;;;;4811287;29;20071;-93
2022/03/20 02:00:47;;;;;;;23.60;9.60;;;;;;;;;;4812036;29;20083;-95
2022/03/20 02:03:29;;;;;;;27.88;11.40;;;;;;;;;;4811529;29;20033;-94
2022/03/20 02:05:56;;;;;;;23.17;10.20;;;;;;;;;;5021169;24;20088;-83
2022/03/20 02:08:26;;;;;;;23.65;9.75;;;;;;;;;;4829890;29;20038;-87
2022/03/20 02:10:55;;;;;;;21.70;8.90;;;;;;;;;;4828677;29;20056;-87
2022/03/20 02:13:40;;;;;;;23.00;9.43;;;;;;;;;;4824727;29;20062;-92
2022/03/20 02:21:55;;;;;;;21.55;9.32;;;;;;;;;;4806975;29;20593;-88
2022/03/20 02:27:32;;;;;;;;;;;;;;;;;;;;;
2022/03/20 02:30:30;;;;;;;24.60;9.90;;;;;;;;;;4845579;29;20033;-95
2022/03/20 02:33:01;;;;;;;23.17;9.32;;;;;;;;;;4829428;29;20065;-93
2022/03/20 02:35:54;;;;;;;21.73;8.75;;;;;;;;;;4828299;29;20132;-94
2022/03/20 02:38:29;;;;;;;23.77;9.38;;;;;;;;;;4842798;29;20525;-93
2022/03/20 02:41:00;;;;;;;24.70;10.02;;;;;;;;;;4828239;29;20038;-92
2022/03/20 02:43:29;;;;;;;21.38;9.13;;;;;;;;;;4828735;29;20042;-87
2022/03/20 02:45:56;;;;;;;19.58;8.65;;;;;;;;;;4828439;29;20488;-87
2022/03/20 02:48:53;;;;;;;22.13;9.32;;;;;;;;;;4827600;29;20433;-93
2022/03/20 02:51:22;;;;;;;20.15;9.45;;;;;;;;;;4824187;24;20090;-92
2022/03/20 02:53:48;;;;;;;21.95;9.80;;;;;;;;;;4809579;29;20461;-89
2022/03/20 02:56:17;;;;;;;20.27;9.77;;;;;;;;;;4926659;24;20158;-93
2022/03/20 02:58:59;;;;;;;21.52;9.60;;;;;;;;;;4825822;29;20038;-93
2022/03/20 03:01:25;;;;;;;24.63;9.32;;;;;;;;;;4845602;24;20106;-85
2022/03/20 03:03:55;;;;;;;24.38;8.90;;;;;;;;;;4828355;29;20068;-93
2022/03/20 03:06:21;;;;;;;24.40;9.88;;;;;;;;;;4887911;24;20058;-92
2022/03/20 03:11:53;;;;;;;22.13;8.02;;;;;;;;;;4826039;29;20109;-89
2022/03/20 03:17:41;;;;;;;21.38;10.05;;;;;;;;;;4824977;29;20126;-82
2022/03/20 03:20:19;;;;;;;23.67;8.98;;;;;;;;;;4814799;29;20034;-93
2022/03/20 03:22:54;;;;;;;20.15;8.80;;;;;;;;;;4814517;29;20105;-86
2022/03/20 03:25:31;;;;;;;17.80;7.40;;;;;;;;;;4851394;23;20058;-93
2022/03/20 03:28:01;;;;;;;21.30;8.98;;;;;;;;;;4832026;29;20511;-94
2022/03/20 03:33:25;;;;;;;24.60;8.48;;;;;;;;;;4809976;29;20035;-94
2022/03/20 03:35:56;;;;;;;23.65;8.93;;;;;;;;;;4835283;24;20061;-93
2022/03/20 03:38:30;;;;;;;20.35;8.82;;;;;;;;;;4832259;29;20037;-90
2022/03/20 03:40:57;;;;;;;22.83;8.68;;;;;;;;;;4832040;29;20045;-86
2022/03/20 03:43:27;;;;;;;19.95;8.25;;;;;;;;;;4831428;29;20045;-92
2022/03/20 03:45:54;;;;;;;25.75;9.55;;;;;;;;;;4853340;23;20059;-87
2022/03/20 03:48:26;;;;;;;19.50;8.00;;;;;;;;;;4813885;29;20026;-85
2022/03/20 03:50:56;;;;;;;19.40;8.65;;;;;;;;;;4813372;29;20034;-86
2022/03/20 03:53:24;;;;;;;19.52;8.20;;;;;;;;;;4828634;29;20042;-95
2022/03/20 03:56:02;;;;;;;20.25;8.43;;;;;;;;;;4836523;24;20058;-92
2022/03/20 03:58:44;;;;;;;14.32;6.95;;;;;;;;;;4827888;29;20553;-93
2022/03/20 04:01:32;;;;;;;16.00;7.65;;;;;;;;;;4846483;24;20074;-87
2022/03/20 04:04:05;;;;;;;16.70;7.20;;;;;;;;;;4832386;29;20045;-94
2022/03/20 04:06:46;;;;;;;16.67;6.43;;;;;;;;;;5358246;23;20062;-92
2022/03/20 04:09:18;;;;;;;19.45;7.60;;;;;;;;;;4813545;29;20464;-95
2022/03/20 04:11:57;;;;;;;19.52;7.43;;;;;;;;;;4812916;29;20411;-89
2022/03/20 04:17:00;;;;;;;19.10;7.75;;;;;;;;;;4857462;23;20069;-91
2022/03/20 04:19:28;;;;;;;17.70;7.32;;;;;;;;;;4830455;29;20051;-86
2022/03/20 04:22:13;;;;;;;17.17;7.10;;;;;;;;;;4830888;29;20030;-93
2022/03/20 04:24:55;;;;;;;16.30;7.80;;;;;;;;;;4847984;29;20110;-92
2022/03/20 04:27:25;;;;;;;16.92;7.68;;;;;;;;;;4831286;29;20037;-93
2022/03/20 04:30:04;;;;;;;19.42;7.18;;;;;;;;;;4831811;29;20036;-87
2022/03/20 04:32:58;;;;;;;19.63;7.60;;;;;;;;;;4830169;29;20163;-91
2022/03/20 04:35:30;;;;;;;17.27;6.90;;;;;;;;;;4845907;29;20498;-83
2022/03/20 04:38:08;;;;;;;28.77;6.82;;;;;;;;;;4830911;29;20030;-84
2022/03/20 04:40:41;;;;;;;14.60;6.70;;;;;;;;;;4850688;29;20020;-83
2022/03/20 04:43:19;;;;;;;19.17;6.95;;;;;;;;;;4844786;29;20030;-88
2022/03/20 04:45:51;;;;;;;18.83;8.18;;;;;;;;;;4838061;29;20030;-86
2022/03/20 05:02:58;;;;;;;17.90;7.25;;;;;;;;;;4846460;29;20059;-86
2022/03/20 05:05:30;;;;;;;20.95;6.72;;;;;;;;;;4830717;29;20058;-92
2022/03/20 05:08:03;;;;;;;17.83;7.22;;;;;;;;;;4829302;29;20480;-94
2022/03/20 05:16:01;;;;;;;16.02;6.30;;;;;;;;;;4848432;29;20086;-84
2022/03/20 05:18:33;;;;;;;19.75;7.53;;;;;;;;;;4846422;29;20067;-91
2022/03/20 05:21:10;;;;;;;;;;;;;;;;;;;;;
2022/03/20 05:23:37;;;;;;;16.05;7.18;;;;;;;;;;4827318;29;20043;-89
2022/03/20 05:26:07;;;;;;;21.77;8.45;;;;;;;;;;4827203;29;20038;-94
2022/03/20 05:28:33;;;;;;;16.45;7.38;;;;;;;;;;4826750;29;20497;-89
2022/03/20 05:30:59;;;;;;;17.05;7.45;;;;;;;;;;4825609;29;20404;-86
2022/03/20 05:33:26;;;;;;;18.98;8.27;;;;;;;;;;4825913;29;20026;-92
2022/03/20 05:35:52;;;;;;;19.38;7.80;;;;;;;;;;4854141;24;20058;-83
2022/03/20 05:38:22;;;;;;;18.10;7.90;;;;;;;;;;4829877;29;20034;-94
2022/03/20 05:44:11;;;;;;;17.73;8.02;;;;;;;;;;4825138;29;20037;-86
2022/03/20 05:52:31;;;;;;;18.08;8.45;;;;;;;;;;5004567;23;20069;-87
2022/03/20 05:58:20;;;;;;;20.38;7.90;;;;;;;;;;4852668;29;20403;-94
2022/03/20 06:03:35;;;;;;;16.38;8.02;;;;;;;;;;4812839;29;20076;-88
2022/03/20 06:09:06;;;;;;;14.18;7.70;;;;;;;;;;4836659;29;20045;-89
2022/03/20 06:11:51;;;;;;;14.43;5.78;;;;;;;;;;5130567;24;20069;-92
2022/03/20 06:24:05;;;;;;;14.02;4.43;;;;;;;;;;4811795;29;20034;-96
2022/03/20 06:29:07;;;;;;;9.80;5.00;;;;;;;;;;5425325;24;20202;-85
2022/03/20 06:31:34;;;;;;;13.75;5.47;;;;;;;;;;4826485;29;20054;-84
2022/03/20 06:34:01;;;;;;;10.23;4.68;;;;;;;;;;4827315;29;20041;-85
2022/03/20 06:36:28;;;;;;;13.70;6.13;;;;;;;;;;4822327;29;20498;-83
2022/03/20 06:38:55;;;;;;;10.75;4.35;;;;;;;;;;4840713;29;20030;-82
2022/03/20 06:41:21;;;;;;;12.00;4.75;;;;;;;;;;4825426;29;20034;-81
2022/03/20 06:43:47;;;;;;;10.98;5.00;;;;;;;;;;4827187;29;20530;-81
2022/03/20 06:46:13;;;;;;;13.02;6.40;;;;;;;;;;4827246;29;20030;-81
2022/03/20 06:48:39;;;;;;;14.45;5.88;;;;;;;;;;4842626;29;20033;-81
2022/03/20 06:51:06;;;;;;;9.93;3.88;;;;;;;;;;4827238;29;20494;-82
2022/03/20 06:53:33;;;;;;;11.98;5.20;;;;;;;;;;4827278;29;20132;-82
2022/03/20 06:56:00;;;;;;;10.20;5.13;;;;;;;;;;4843792;29;20502;-81
2022/03/20 06:58:27;;;;;;;8.43;3.55;;;;;;;;;;4828919;29;20113;-85
2022/03/20 07:00:53;;;;;;;9.88;4.25;;;;;;;;;;4846417;29;20033;-87
2022/03/20 07:03:20;;;;;;;11.15;4.93;;;;;;;;;;4834164;29;20087;-87
2022/03/20 07:05:48;;;;;;;6.15;2.97;;;;;;;;;;4850194;29;20026;-85
2022/03/20 07:08:14;;;;;;;15.27;5.00;;;;;;;;;;4864688;29;20034;-81
2022/03/20 07:10:42;;;;;;;10.10;5.10;;;;;;;;;;4850643;29;20094;-81
2022/03/20 07:15:58;;;;;;;16.00;6.25;;;;;;;;;;4843298;29;20056;-83
2022/03/20 07:18:25;;;;;;;11.90;5.40;;;;;;;;;;4827148;29;20117;-86
2022/03/20 07:20:55;;;;;;;10.93;4.97;;;;;;;;;;4828864;29;20034;-87
2022/03/20 07:23:25;;;;;;;12.48;4.63;;;;;;;;;;4845475;29;20395;-95
2022/03/20 07:31:24;;;;;;;9.82;4.78;;;;;;;;;;4836709;29;20053;-84
2022/03/20 07:33:54;;;;;;;12.68;5.28;;;;;;;;;;4841045;29;20484;-82
2022/03/20 07:36:20;;;;;;;13.35;5.47;;;;;;;;;;4828166;29;20037;-85
2022/03/20 07:38:46;;;;;;;16.40;6.03;;;;;;;;;;4828224;29;20034;-88
2022/03/20 07:41:13;;;;;;;12.05;5.25;;;;;;;;;;4830139;29;20037;-91
2022/03/20 07:44:02;;;;;;;12.38;4.32;;;;;;;;;;4846981;29;20025;-90
2022/03/20 07:46:28;;;;;;;15.68;6.85;;;;;;;;;;4850536;29;20057;-83
2022/03/20 07:48:54;;;;;;;16.67;6.05;;;;;;;;;;4827242;29;20030;-89
2022/03/20 07:51:22;;;;;;;13.60;6.10;;;;;;;;;;4825001;29;20042;-91
2022/03/20 07:53:58;;;;;;;16.80;5.63;;;;;;;;;;4847998;29;20049;-93
2022/03/20 07:56:34;;;;;;;28.02;12.45;;;;;;;;;;4834937;29;20038;-93
2022/03/20 07:59:00;;;;;;;12.73;6.30;;;;;;;;;;4967221;23;20114;-88
2022/03/20 08:01:38;;;;;;;;;;;;;;;;;;;;;
2022/03/20 08:04:10;;;;;;;14.20;6.82;;;;;;;;;;4834666;29;20083;-95
2022/03/20 08:06:36;;;;;;;12.23;5.80;;;;;;;;;;4813074;29;20037;-84
2022/03/20 08:09:03;;;;;;;11.57;5.13;;;;;;;;;;4812339;29;20026;-94
2022/03/20 08:11:30;;;;;;;18.02;6.32;;;;;;;;;;4830139;29;20137;-81
2022/03/20 08:14:08;;;;;;;16.90;6.35;;;;;;;;;;4814564;29;20041;-95
2022/03/20 08:16:38;;;;;;;15.85;6.75;;;;;;;;;;4814980;29;20049;-91
2022/03/20 08:19:08;;;;;;;18.58;8.88;;;;;;;;;;4828885;29;20043;-91
2022/03/20 08:26:46;;;;;;;15.27;6.35;;;;;;;;;;5169550;24;20058;-88
2022/03/20 08:29:13;;;;;;;14.05;6.32;;;;;;;;;;4845100;29;20022;-91
2022/03/20 08:31:47;;;;;;;9.65;4.00;;;;;;;;;;4833389;29;20025;-89
2022/03/20 08:34:15;;;;;;;15.60;6.32;;;;;;;;;;4830414;29;20042;-86
2022/03/20 08:36:47;;;;;;;10.63;3.72;;;;;;;;;;4832626;29;20045;-90
2022/03/20 08:39:16;;;;;;;17.33;7.30;;;;;;;;;;4831251;29;20078;-94
2022/03/20 08:41:57;;;;;;;13.95;5.75;;;;;;;;;;4847167;29;20041;-93
2022/03/20 08:44:26;;;;;;;13.00;6.05;;;;;;;;;;4829762;29;20030;-87
2022/03/20 08:46:52;;;;;;;11.05;4.53;;;;;;;;;;4830680;29;20062;-84
2022/03/20 08:49:19;;;;;;;17.48;6.65;;;;;;;;;;4831373;29;20036;-87
2022/03/20 08:51:48;;;;;;;12.60;6.03;;;;;;;;;;4841724;29;20021;-92
2022/03/20 08:54:14;;;;;;;10.32;4.75;;;;;;;;;;4852183;29;20059;-90
2022/03/20 08:56:40;;;;;;;10.30;4.82;;;;;;;;;;4843653;29;20031;-86
2022/03/20 08:59:07;;;;;;;13.77;5.47;;;;;;;;;;4829654;29;20384;-86
2022/03/20 09:01:33;;;;;;;19.80;5.82;;;;;;;;;;4829797;29;20029;-85
2022/03/20 09:04:00;;;;;;;16.73;5.10;;;;;;;;;;4845385;29;20034;-87
2022/03/20 09:06:29;;;;;;;11.02;5.25;;;;;;;;;;4831434;29;20274;-91
2022/03/20 09:09:01;;;;;;;11.80;5.15;;;;;;;;;;4829821;29;20029;-92
2022/03/20 09:11:27;;;;;;;14.25;6.70;;;;;;;;;;4829913;29;20471;-87
2022/03/20 09:13:53;;;;;;;13.77;5.93;;;;;;;;;;4829617;29;20101;-93
2022/03/20 09:19:08;;;;;;;32.55;13.52;;;;;;;;;;4845881;29;20544;-93
2022/03/20 09:21:36;;;;;;;7.65;3.72;;;;;;;;;;4830611;29;20040;-89
2022/03/20 09:24:03;;;;;;;12.95;6.15;;;;;;;;;;4829890;29;20101;-88
2022/03/20 09:26:30;;;;;;;43.75;16.02;;;;;;;;;;4829429;29;20064;-86
2022/03/20 09:29:03;;;;;;;14.43;6.25;;;;;;;;;;4830053;29;20071;-94
2022/03/20 09:31:35;;;;;;;6.35;3.40;;;;;;;;;;4830009;29;20041;-93
2022/03/20 09:34:02;;;;;;;9.80;4.80;;;;;;;;;;4829541;29;20077;-87
2022/03/20 09:36:29;;;;;;;17.33;6.80;;;;;;;;;;4829842;29;20026;-88
2022/03/20 09:38:56;;;;;;;9.48;4.35;;;;;;;;;;4828947;29;20045;-86
2022/03/20 09:41:33;;;;;;;8.40;3.35;;;;;;;;;;4828910;29;20061;-85
2022/03/20 09:44:03;;;;;;;14.02;5.15;;;;;;;;;;4846175;29;20030;-93
2022/03/20 09:46:33;;;;;;;10.85;5.05;;;;;;;;;;4828908;29;20125;-89
2022/03/20 09:49:11;;;;;;;8.75;4.40;;;;;;;;;;4846159;29;20034;-90
2022/03/20 09:51:42;;;;;;;12.52;4.85;;;;;;;;;;4829538;29;20387;-91
2022/03/20 09:54:14;;;;;;;9.20;4.63;;;;;;;;;;4829277;29;20072;-93
2022/03/20 09:56:54;;;;;;;12.02;5.43;;;;;;;;;;4830113;29;20037;-92
2022/03/20 09:59:27;;;;;;;9.25;4.25;;;;;;;;;;4829265;29;20022;-91
2022/03/20 10:02:01;;;;;;;8.68;3.70;;;;;;;;;;4829552;29;20065;-89
2022/03/20 10:04:28;;;;;;;12.73;4.82;;;;;;;;;;4830329;29;20038;-92
2022/03/20 10:06:54;;;;;;;11.50;5.10;;;;;;;;;;4829176;29;20026;-90
2022/03/20 10:09:23;;;;;;;10.98;5.30;;;;;;;;;;4829177;29;20034;-88
2022/03/20 10:11:57;;;;;;;14.43;6.82;;;;;;;;;;4829266;29;20038;-91
2022/03/20 10:14:23;;;;;;;;;;;;;;;;;;4839798;29;20049;-89
2022/03/20 10:17:17;;;;;;;13.98;7.05;;;;;;;;;;4843613;29;19912;-87
2022/03/20 10:19:43;;;;;;;16.40;8.30;;;;;;;;;;4828873;29;20057;-91
2022/03/20 10:22:29;;;;;;;13.88;6.68;;;;;;;;;;4828892;29;20508;-92
2022/03/20 10:24:55;;;;;;;14.63;7.15;;;;;;;;;;4842887;29;20030;-92
2022/03/20 10:27:40;;;;;;;13.93;6.18;;;;;;;;;;4829299;29;20407;-95
2022/03/20 10:30:40;;;;;;;12.45;5.65;;;;;;;;;;4831065;29;20037;-95
2022/03/20 10:33:25;;;;;;;12.13;5.35;;;;;;;;;;4802053;29;20179;-94
2022/03/20 10:36:10;;;;;;;13.05;6.20;;;;;;;;;;4832363;29;20034;-93
2022/03/20 10:39:04;;;;;;;12.25;6.05;;;;;;;;;;4833435;29;20034;-88
2022/03/20 10:41:34;;;;;;;11.45;6.28;;;;;;;;;;4851405;29;20018;-88
2022/03/20 10:44:01;;;;;;;10.63;5.22;;;;;;;;;;4848653;29;20049;-94
2022/03/20 10:46:28;;;;;;;10.82;4.95;;;;;;;;;;4830011;29;20046;-91
2022/03/20 10:48:58;;;;;;;15.48;5.90;;;;;;;;;;4829299;29;20034;-92
2022/03/20 10:51:43;;;;;;;10.82;4.75;;;;;;;;;;4832263;29;20051;-86
2022/03/20 10:54:22;;;;;;;8.93;4.60;;;;;;;;;;4831656;29;20030;-88
2022/03/20 10:57:08;;;;;;;12.95;5.32;;;;;;;;;;4847485;29;20034;-83
2022/03/20 10:59:35;;;;;;;9.85;5.65;;;;;;;;;;4833045;29;20487;-96
2022/03/20 11:02:08;;;;;;;9.88;5.35;;;;;;;;;;4832815;29;20166;-85
2022/03/20 11:04:34;;;;;;;10.32;4.95;;;;;;;;;;4846025;29;20018;-86
2022/03/20 11:07:06;;;;;;;9.18;4.53;;;;;;;;;;4830793;29;20041;-87
2022/03/20 11:09:32;;;;;;;9.10;4.93;;;;;;;;;;4831143;29;20086;-85
2022/03/20 11:11:59;;;;;;;14.35;6.93;;;;;;;;;;4829912;29;20071;-86
2022/03/20 11:14:26;;;;;;;11.18;4.88;;;;;;;;;;4829158;29;20133;-86
2022/03/20 11:17:02;;;;;;;11.52;5.20;;;;;;;;;;4830007;29;20026;-86
2022/03/20 11:19:31;;;;;;;13.80;5.80;;;;;;;;;;4834466;29;20057;-91
2022/03/20 11:22:01;;;;;;;12.30;5.10;;;;;;;;;;4830315;29;20036;-85
2022/03/20 11:24:28;;;;;;;13.52;5.47;;;;;;;;;;4830653;29;20037;-94
2022/03/20 11:27:01;;;;;;;13.45;6.30;;;;;;;;;;4828712;29;20054;-95
2022/03/20 11:29:33;;;;;;;;;;;;;;;;;;4848144;29;20078;-93
2022/03/20 11:32:01;;;;;;;11.52;5.90;;;;;;;;;;4832310;29;19999;-95
2022/03/20 11:34:30;;;;;;;10.02;5.57;;;;;;;;;;4830199;29;20034;-92
2022/03/20 11:36:59;;;;;;;9.13;4.43;;;;;;;;;;4828733;29;20034;-92
2022/03/20 11:39:40;;;;;;;9.13;4.20;;;;;;;;;;4828264;29;20026;-93
2022/03/20 11:42:24;;;;;;;8.15;3.47;;;;;;;;;;4831746;29;20038;-90
2022/03/20 11:44:51;;;;;;;5.88;2.75;;;;;;;;;;4832288;29;20428;-91
2022/03/20 11:47:27;;;;;;;8.60;4.28;;;;;;;;;;4831432;29;20026;-92
2022/03/20 11:50:16;;;;;;;10.70;4.70;;;;;;;;;;4831823;29;20038;-91
2022/03/20 11:52:58;;;;;;;13.70;2.90;;;;;;;;;;4831417;29;20052;-91
2022/03/20 11:55:30;;;;;;;9.00;3.53;;;;;;;;;;4833690;29;20152;-93
2022/03/20 11:58:17;;;;;;;14.50;4.85;;;;;;;;;;4833536;29;20488;-90
2022/03/20 12:00:44;;;;;;;8.75;4.65;;;;;;;;;;4835725;29;20038;-91
2022/03/20 12:03:14;;;;;;;11.55;5.80;;;;;;;;;;4832036;29;20026;-92
2022/03/20 12:05:54;;;;;;;11.07;4.65;;;;;;;;;;4831536;29;20026;-88
2022/03/20 12:08:42;;;;;;;13.43;5.90;;;;;;;;;;4832197;29;20029;-91
2022/03/20 12:11:26;;;;;;;10.07;5.18;;;;;;;;;;4835357;29;20033;-93
2022/03/20 12:14:03;;;;;;;10.45;5.53;;;;;;;;;;4835300;29;20022;-94
2022/03/20 12:16:51;;;;;;;10.55;5.50;;;;;;;;;;4834011;29;20061;-90
2022/03/20 12:19:37;;;;;;;10.88;5.38;;;;;;;;;;4836893;29;20087;-93
2022/03/20 12:22:10;;;;;;;10.73;5.18;;;;;;;;;;4836468;29;20063;-96
2022/03/20 12:24:45;;;;;;;;;;;;;;;;;;4834947;29;20041;-89
2022/03/20 12:32:26;;;;;;;12.80;5.57;;;;;;;;;;4911961;23;20074;-85
2022/03/20 12:35:14;;;;;;;10.73;5.10;;;;;;;;;;4831055;29;20224;-93
2022/03/20 12:37:56;;;;;;;10.60;5.63;;;;;;;;;;4831485;29;20408;-85
2022/03/20 12:40:30;;;;;;;13.23;4.90;;;;;;;;;;4832806;29;20032;-93
2022/03/20 12:42:56;;;;;;;11.35;5.55;;;;;;;;;;4834137;29;20026;-93
2022/03/20 12:45:36;;;;;;;11.65;5.60;;;;;;;;;;4831513;29;20066;-92
2022/03/20 12:51:04;;;;;;;8.43;4.13;;;;;;;;;;4851456;29;20037;-92
2022/03/20 12:53:43;;;;;;;10.07;4.68;;;;;;;;;;4835460;29;20030;-93
2022/03/20 12:56:11;;;;;;;12.63;5.75;;;;;;;;;;4836066;29;20061;-92
2022/03/20 12:58:40;;;;;;;10.10;5.07;;;;;;;;;;4852844;29;20010;-90
2022/03/20 13:01:10;;;;;;;6.95;3.28;;;;;;;;;;4838487;29;20045;-90
2022/03/20 13:03:36;;;;;;;6.38;2.45;;;;;;;;;;4839455;29;20083;-91
2022/03/20 13:06:04;;;;;;;12.95;5.22;;;;;;;;;;4818408;29;20038;-91
2022/03/20 13:08:43;;;;;;;12.77;6.20;;;;;;;;;;4831739;29;20117;-92
2022/03/20 13:14:03;;;;;;;9.00;4.70;;;;;;;;;;4847650;29;20065;-92
2022/03/20 13:16:55;;;;;;;9.57;4.30;;;;;;;;;;4833312;29;20407;-95
2022/03/20 13:19:32;;;;;;;7.53;3.85;;;;;;;;;;4838822;29;20032;-90
2022/03/20 13:22:03;;;;;;;10.57;5.22;;;;;;;;;;4844685;29;20034;-92
2022/03/20 13:24:33;;;;;;;10.98;4.88;;;;;;;;;;4857648;24;20058;-88
2022/03/20 13:27:07;;;;;;;9.38;4.40;;;;;;;;;;4992319;23;20061;-86
2022/03/20 13:29:33;;;;;;;;;;;;;;;;;;4842309;29;20030;-84
2022/03/20 13:32:25;;;;;;;10.35;4.85;;;;;;;;;;4841071;29;19908;-85
2022/03/20 13:34:51;;;;;;;11.15;4.93;;;;;;;;;;4841089;29;20045;-85
2022/03/20 13:37:17;;;;;;;12.00;5.28;;;;;;;;;;4845022;29;20086;-84
2022/03/20 13:39:48;;;;;;;10.82;5.15;;;;;;;;;;4856687;29;20053;-85
2022/03/20 13:42:18;;;;;;;10.23;4.63;;;;;;;;;;4843592;29;20038;-85
2022/03/20 13:45:13;;;;;;;11.73;4.90;;;;;;;;;;4844063;29;20046;-86
2022/03/20 13:47:44;;;;;;;15.30;5.57;;;;;;;;;;4848114;29;20042;-89
2022/03/20 13:50:23;;;;;;;13.85;5.97;;;;;;;;;;4841460;29;20041;-88
2022/03/20 13:52:54;;;;;;;10.05;5.15;;;;;;;;;;4835549;29;20037;-91
2022/03/20 13:55:41;;;;;;;15.10;5.20;;;;;;;;;;4840463;29;20093;-89
2022/03/20 13:58:08;;;;;;;13.63;5.80;;;;;;;;;;4854863;29;20042;-86
2022/03/20 14:00:37;;;;;;;12.00;5.55;;;;;;;;;;4853811;29;20026;-94
2022/03/20 14:03:40;;;;;;;9.85;4.85;;;;;;;;;;4836296;29;20033;-95
2022/03/20 14:06:09;;;;;;;11.10;5.15;;;;;;;;;;4832697;29;20037;-87
2022/03/20 14:08:51;;;;;;;9.55;4.75;;;;;;;;;;4825807;29;20045;-94
2022/03/20 14:23:46;;;;;;;11.18;4.93;;;;;;;;;;4857187;29;20110;-96
2022/03/20 14:39:28;;;;;;;16.48;6.50;;;;;;;;;;4829899;29;20091;-87
2022/03/20 14:41:58;;;;;;;13.65;5.28;;;;;;;;;;4835066;29;20336;-88
2022/03/20 14:44:51;;;;;;;16.48;7.60;;;;;;;;;;4819547;29;20030;-89
2022/03/20 14:47:21;;;;;;;15.70;7.57;;;;;;;;;;4810399;29;20126;-85
2022/03/20 14:49:54;;;;;;;14.50;6.07;;;;;;;;;;4813214;29;20046;-91
2022/03/20 14:52:21;;;;;;;26.38;8.35;;;;;;;;;;4810197;29;20037;-87
2022/03/20 14:54:48;;;;;;;17.50;6.60;;;;;;;;;;4809466;29;20507;-84
2022/03/20 14:57:23;;;;;;;11.13;5.18;;;;;;;;;;4809491;29;20030;-87
2022/03/20 14:59:52;;;;;;;8.00;4.07;;;;;;;;;;4826078;29;20030;-85
2022/03/20 15:02:22;;;;;;;9.77;4.40;;;;;;;;;;4810586;29;20030;-87
2022/03/20 15:05:10;;;;;;;12.13;4.30;;;;;;;;;;4812306;29;20038;-90
2022/03/20 15:11:23;;;;;;;9.18;4.32;;;;;;;;;;4809787;29;20035;-89
2022/03/20 15:13:14;;;;;;;9.73;4.15;;;;;;;;;;4827058;29;20408;-86
2022/03/20 15:15:41;;;;;;;7.85;3.60;;;;;;;;;;4824716;29;20035;-86
2022/03/20 15:18:08;;;;;;;8.20;3.95;;;;;;;;;;4827620;29;20030;-84
2022/03/20 15:20:37;;;;;;;7.28;4.03;;;;;;;;;;4828930;29;20524;-94
2022/03/20 15:23:03;;;;;;;8.13;3.65;;;;;;;;;;4826035;29;20552;-85
2022/03/20 15:25:32;;;;;;;13.25;3.60;;;;;;;;;;4825409;29;20033;-91
2022/03/20 15:27:59;;;;;;;8.27;4.38;;;;;;;;;;4826112;29;20030;-86
2022/03/20 15:30:26;;;;;;;7.45;3.08;;;;;;;;;;4824859;29;20461;-84
2022/03/20 15:32:57;;;;;;;7.72;4.18;;;;;;;;;;4824955;29;20027;-91
2022/03/20 15:35:28;;;;;;;11.20;4.55;;;;;;;;;;4825858;29;20050;-93
2022/03/20 15:37:57;;;;;;;10.52;4.80;;;;;;;;;;4824828;29;20022;-91
2022/03/20 15:40:23;;;;;;;8.85;5.13;;;;;;;;;;4824589;29;20035;-91
2022/03/20 15:42:58;;;;;;;12.63;6.13;;;;;;;;;;4824555;29;20113;-91
2022/03/20 15:45:25;;;;;;;11.13;4.93;;;;;;;;;;4826414;29;20571;-90
2022/03/20 15:47:51;;;;;;;9.75;4.50;;;;;;;;;;4827598;29;20379;-91
2022/03/20 15:50:17;;;;;;;9.65;4.50;;;;;;;;;;4826439;29;20129;-87
2022/03/20 15:52:46;;;;;;;10.88;5.30;;;;;;;;;;4825536;29;20034;-90
2022/03/20 15:55:13;;;;;;;10.63;5.10;;;;;;;;;;4826041;29;20158;-86
2022/03/20 15:57:39;;;;;;;10.93;5.32;;;;;;;;;;4826997;29;20153;-93
2022/03/20 16:00:05;;;;;;;10.02;5.15;;;;;;;;;;4826651;29;20035;-92
2022/03/20 16:02:34;;;;;;;10.98;5.22;;;;;;;;;;4826975;29;20034;-91
2022/03/20 16:05:10;;;;;;;10.40;4.93;;;;;;;;;;4834900;29;20051;-87
2022/03/20 16:07:40;;;;;;;9.27;4.85;;;;;;;;;;4847277;29;20023;-91
2022/03/20 16:10:06;;;;;;;12.85;5.20;;;;;;;;;;4837384;29;20050;-89
2022/03/20 16:13:06;;;;;;;10.90;5.32;;;;;;;;;;4830927;29;20026;-94
2022/03/20 16:15:36;;;;;;;10.50;5.75;;;;;;;;;;4783134;29;20046;-91
2022/03/20 16:18:03;;;;;;;11.90;5.60;;;;;;;;;;4832245;29;20497;-92
2022/03/20 16:20:29;;;;;;;17.92;8.38;;;;;;;;;;4834607;29;20033;-88
2022/03/20 16:28:30;;;;;;;13.38;6.10;;;;;;;;;;4837818;29;20087;-88
2022/03/20 16:31:07;;;;;;;10.68;5.60;;;;;;;;;;4835957;29;20057;-91
2022/03/20 16:33:34;;;;;;;10.20;5.45;;;;;;;;;;4830206;29;20046;-84
2022/03/20 16:36:06;;;;;;;14.25;6.03;;;;;;;;;;4848019;29;20038;-93
2022/03/20 16:38:54;;;;;;;13.25;6.00;;;;;;;;;;4797930;29;20065;-93
2022/03/20 16:41:20;;;;;;;10.30;5.22;;;;;;;;;;4827559;29;20510;-91
2022/03/20 16:43:47;;;;;;;11.45;6.07;;;;;;;;;;4812060;29;20515;-84
2022/03/20 16:46:16;;;;;;;12.90;6.97;;;;;;;;;;4828535;29;20044;-89
2022/03/20 16:48:42;;;;;;;11.60;6.15;;;;;;;;;;4815310;29;20037;-87
2022/03/20 16:51:15;;;;;;;15.93;7.05;;;;;;;;;;4814402;29;20473;-85
2022/03/20 16:53:41;;;;;;;13.67;7.33;;;;;;;;;;4829241;29;20044;-86
2022/03/20 16:56:08;;;;;;;16.85;7.72;;;;;;;;;;4814304;29;20404;-88
2022/03/20 16:58:35;;;;;;;19.63;8.48;;;;;;;;;;4843168;29;20027;-87
2022/03/20 17:01:01;;;;;;;12.88;6.63;;;;;;;;;;4826814;29;20118;-89
2022/03/20 17:03:30;;;;;;;14.32;6.20;;;;;;;;;;4832117;29;20014;-91
2022/03/20 17:05:57;;;;;;;13.38;6.78;;;;;;;;;;4828660;29;20030;-92
2022/03/20 17:08:35;;;;;;;17.75;8.27;;;;;;;;;;4826981;29;20445;-88
2022/03/20 17:11:06;;;;;;;18.92;9.27;;;;;;;;;;4826995;29;20034;-88
2022/03/20 17:13:33;;;;;;;15.50;7.63;;;;;;;;;;4827817;29;20125;-87
2022/03/20 17:16:05;;;;;;;15.85;7.30;;;;;;;;;;4828790;29;20043;-92
2022/03/20 17:18:32;;;;;;;10.90;6.30;;;;;;;;;;4824016;29;20480;-87
2022/03/20 17:21:01;;;;;;;36.17;17.95;;;;;;;;;;4811852;29;20030;-89
2022/03/20 17:23:34;;;;;;;112.00;39.13;;;;;;;;;;4828252;29;20106;-90
2022/03/20 17:26:08;;;;;;;;;;;;;;;;;;4812455;29;20109;-88
2022/03/20 17:28:41;;;;;;;11.95;5.43;;;;;;;;;;4812495;29;20358;-87
2022/03/20 17:31:08;;;;;;;10.20;5.20;;;;;;;;;;4813210;29;20122;-90
2022/03/20 17:33:34;;;;;;;47.35;19.50;;;;;;;;;;4811149;29;20022;-89
2022/03/20 17:36:02;;;;;;;197.68;57.80;;;;;;;;;;4825080;29;20461;-85
2022/03/20 17:38:28;;;;;;;346.77;109.47;;;;;;;;;;4826013;29;20061;-86
2022/03/20 17:40:55;;;;;;;237.85;68.93;;;;;;;;;;4825992;29;20547;-86
2022/03/20 17:43:24;;;;;;;67.57;23.80;;;;;;;;;;4825869;29;20037;-89
2022/03/20 17:45:51;;;;;;;49.85;18.60;;;;;;;;;;4826370;29;20033;-85